Time;durP1;ratioP1;P1;durP2;ratioP2;P2;SDS_P1;SDS_P2;PMS_P1;PMS_P2;Temp;Humidity;BMP_temperature;BMP_pressure;BME280_temperature;BME280_humidity;BME280_pressure;Samples;Min_cycle;Max_cycle;Signal;HPM_P1;HPM_P2
2022/11/25 00:09:44;;;;;;;4.53;1.80;;;8.90;99.90;;;;;;20566042;28;20478;-43
2022/11/25 00:19:47;;;;;;;6.00;1.95;;;8.90;99.90;;;;;;20565291;28;20042;-42
2022/11/25 00:29:48;;;;;;;7.85;2.17;;;8.90;99.90;;;;;;20576050;28;20491;-42
2022/11/25 00:39:50;;;;;;;23.13;3.53;;;8.90;99.90;;;;;;20627685;28;20034;-43
2022/11/25 00:49:53;;;;;;;8.52;2.85;;;9.00;99.90;;;;;;20636742;28;20515;-43
2022/11/25 00:59:54;;;;;;;5.30;1.88;;;8.90;99.90;;;;;;20638786;28;20029;-42
2022/11/25 01:09:55;;;;;;;12.00;2.17;;;9.00;99.90;;;;;;20637651;28;20077;-43
2022/11/25 01:19:56;;;;;;;3.03;1.48;;;9.00;99.90;;;;;;20624139;28;20326;-42
2022/11/25 01:29:57;;;;;;;4.38;2.20;;;9.10;99.90;;;;;;20636243;28;20053;-42
2022/11/25 01:39:58;;;;;;;17.05;2.85;;;9.10;99.90;;;;;;20638736;28;20046;-42
2022/11/25 01:50:03;;;;;;;5.32;2.05;;;9.10;99.90;;;;;;20629532;28;20050;-41
2022/11/25 02:00:06;;;;;;;5.05;2.03;;;9.10;99.90;;;;;;20627452;28;20157;-42
2022/11/25 02:10:13;;;;;;;5.47;2.90;;;9.10;99.90;;;;;;20624540;28;20537;-42
2022/11/25 02:20:20;;;;;;;8.50;2.90;;;9.00;99.90;;;;;;20623648;28;20129;-42
2022/11/25 02:30:21;;;;;;;4.65;1.65;;;9.00;99.90;;;;;;20639966;28;20045;-42
2022/11/25 02:40:23;;;;;;;10.32;2.75;;;9.10;99.90;;;;;;20624897;28;20173;-42
2022/11/25 02:50:24;;;;;;;9.20;1.77;;;9.00;99.90;;;;;;20631710;28;20103;-42
2022/11/25 03:00:25;;;;;;;5.25;1.92;;;9.10;99.90;;;;;;20629874;28;20501;-43
2022/11/25 03:10:26;;;;;;;4.95;1.83;;;9.00;99.90;;;;;;20637141;28;20132;-43
2022/11/25 03:20:27;;;;;;;3.47;1.52;;;9.10;99.90;;;;;;20624950;28;20128;-43
2022/11/25 03:30:29;;;;;;;4.07;1.60;;;9.10;99.90;;;;;;20621533;28;20180;-42
2022/11/25 03:40:30;;;;;;;4.28;1.17;;;9.00;99.90;;;;;;20631431;28;20128;-42
2022/11/25 03:50:31;;;;;;;4.70;2.13;;;9.00;99.90;;;;;;20625371;28;20062;-42
2022/11/25 04:00:32;;;;;;;3.17;1.70;;;9.00;99.90;;;;;;20623877;28;20373;-41
2022/11/25 04:10:33;;;;;;;3.47;1.02;;;9.00;99.90;;;;;;20614717;28;20078;-42
2022/11/25 04:20:34;;;;;;;2.53;0.55;;;9.00;99.90;;;;;;20600852;28;20096;-42
2022/11/25 04:30:37;;;;;;;2.03;0.85;;;8.90;99.90;;;;;;20615235;28;20037;-42
2022/11/25 04:40:38;;;;;;;2.10;1.17;;;8.90;99.90;;;;;;20612653;28;20255;-41
2022/11/25 04:50:39;;;;;;;3.42;1.13;;;8.80;99.90;;;;;;20590724;28;20207;-42
2022/11/25 05:00:40;;;;;;;4.25;1.33;;;8.60;99.90;;;;;;20618867;28;20104;-42
2022/11/25 05:10:41;;;;;;;1.95;0.73;;;8.60;99.90;;;;;;20612832;28;21255;-42
2022/11/25 05:20:43;;;;;;;2.63;0.93;;;8.50;99.90;;;;;;20592430;28;20418;-43
2022/11/25 05:30:44;;;;;;;3.05;1.02;;;8.40;99.90;;;;;;20587175;28;21034;-42
2022/11/25 05:40:45;;;;;;;0.70;0.22;;;8.40;99.90;;;;;;20577937;28;20097;-42
2022/11/25 05:50:46;;;;;;;3.05;0.82;;;8.40;99.90;;;;;;20567634;28;20499;-42
2022/11/25 06:00:47;;;;;;;2.67;0.90;;;8.30;99.90;;;;;;20528896;28;20070;-41
2022/11/25 06:10:48;;;;;;;3.70;0.88;;;8.30;99.90;;;;;;20549987;28;20046;-42
2022/11/25 06:20:57;;;;;;;2.65;0.77;;;8.30;99.90;;;;;;20568000;28;20035;-43
2022/11/25 06:31:08;;;;;;;2.60;1.15;;;8.20;99.90;;;;;;20573097;28;20208;-42
2022/11/25 06:41:09;;;;;;;3.28;1.75;;;8.10;99.90;;;;;;20567726;28;20146;-42
2022/11/25 06:51:11;;;;;;;3.42;1.70;;;8.00;99.90;;;;;;20566324;28;20081;-43
2022/11/25 07:01:18;;;;;;;3.20;1.25;;;8.00;99.90;;;;;;20561492;28;20434;-42
2022/11/25 07:11:25;;;;;;;4.07;1.73;;;7.90;99.90;;;;;;20570649;28;20177;-41
2022/11/25 07:21:26;;;;;;;8.67;2.67;;;7.90;99.90;;;;;;20573789;28;20129;-42
2022/11/25 07:31:36;;;;;;;8.38;2.83;;;7.80;99.90;;;;;;20564989;28;20410;-42
2022/11/25 07:41:37;;;;;;;4.35;2.35;;;7.80;99.90;;;;;;20585939;28;20832;-41
2022/11/25 07:51:46;;;;;;;5.00;1.65;;;7.70;99.90;;;;;;20602396;28;20031;-42
2022/11/25 08:01:49;;;;;;;2.88;1.90;;;7.70;99.90;;;;;;20600415;28;20874;-42
2022/11/25 08:11:51;;;;;;;3.40;1.42;;;7.80;99.90;;;;;;20597549;28;20814;-41
2022/11/25 08:21:53;;;;;;;9.77;2.25;;;7.90;99.90;;;;;;20613629;28;20041;-42
2022/11/25 08:31:54;;;;;;;5.53;2.28;;;7.90;99.90;;;;;;20633838;28;20084;-41
2022/11/25 08:41:55;;;;;;;5.07;2.33;;;8.00;99.90;;;;;;20620178;28;20102;-41
2022/11/25 08:51:57;;;;;;;4.15;1.50;;;8.10;99.90;;;;;;20617482;28;20678;-41
2022/11/25 09:01:58;;;;;;;4.45;1.65;;;8.20;99.90;;;;;;20631180;28;20073;-42
2022/11/25 09:11:59;;;;;;;4.82;1.02;;;8.40;99.90;;;;;;20652968;28;20045;-42
2022/11/25 09:22:00;;;;;;;1.92;0.88;;;8.50;99.90;;;;;;20650905;28;20058;-42
2022/11/25 09:32:01;;;;;;;1.25;0.75;;;8.80;99.90;;;;;;20655386;28;20049;-42
2022/11/25 09:53:03;;;;;;;4.45;0.60;;;9.30;99.90;;;;;;20646483;28;21864;-41
2022/11/25 10:03:10;;;;;;;4.15;1.50;;;9.40;99.90;;;;;;20657417;28;20136;-42
2022/11/25 10:13:19;;;;;;;4.53;1.03;;;9.70;99.90;;;;;;20650133;28;20136;-42
2022/11/25 10:23:49;;;;;;;2.38;1.02;;;10.00;99.90;;;;;;20651274;28;20077;-43
2022/11/25 10:33:55;;;;;;;2.47;1.13;;;10.30;99.90;;;;;;20640103;28;20379;-42
2022/11/25 10:43:56;;;;;;;1.48;0.60;;;10.70;99.90;;;;;;20652656;28;20097;-42
2022/11/25 10:54:27;;;;;;;2.20;0.68;;;11.40;99.90;;;;;;20646502;28;20139;-42
2022/11/25 11:04:29;;;;;;;2.45;1.25;;;11.90;99.90;;;;;;20590074;28;20145;-43
2022/11/25 11:14:29;;;;;;;3.70;1.77;;;12.30;99.90;;;;;;20639287;28;20077;-43
2022/11/25 11:24:36;;;;;;;3.08;1.23;;;12.40;99.90;;;;;;20646972;28;20046;-43
2022/11/25 11:34:56;;;;;;;3.35;1.20;;;12.80;99.90;;;;;;20627637;28;20737;-43
2022/11/25 11:45:27;;;;;;;2.67;0.63;;;12.80;99.90;;;;;;20628461;28;20827;-43
2022/11/25 11:55:37;;;;;;;2.83;1.38;;;13.60;99.90;;;;;;20633812;28;20042;-42
2022/11/25 12:05:38;;;;;;;3.55;1.05;;;13.50;99.90;;;;;;20635666;28;20944;-43
2022/11/25 12:16:11;;;;;;;4.55;1.98;;;12.70;99.90;;;;;;20628256;28;20645;-43
2022/11/25 12:26:28;;;;;;;2.00;1.00;;;12.50;99.90;;;;;;20626122;28;20771;-42
2022/11/25 12:36:38;;;;;;;2.08;0.85;;;13.10;99.90;;;;;;20624971;28;20482;-43
2022/11/25 12:46:47;;;;;;;5.47;1.10;;;13.60;99.90;;;;;;20620598;28;21864;-44
2022/11/25 12:57:16;;;;;;;4.07;2.05;;;14.10;99.90;;;;;;20638508;28;20846;-43
2022/11/25 13:07:25;;;;;;;3.05;0.93;;;13.90;99.90;;;;;;20619490;28;20125;-44
2022/11/25 13:17:28;;;;;;;3.42;1.40;;;13.10;99.90;;;;;;20598102;28;20508;-43
2022/11/25 13:27:39;;;;;;;10.70;1.85;;;12.90;99.90;;;;;;20611326;28;20140;-43
2022/11/25 13:37:40;;;;;;;2.50;0.95;;;12.80;99.90;;;;;;20608808;28;20184;-42
2022/11/25 13:47:47;;;;;;;2.88;1.33;;;12.40;99.90;;;;;;20612021;28;20050;-42
2022/11/25 13:58:09;;;;;;;2.83;0.90;;;12.40;99.90;;;;;;20611855;28;20084;-42
2022/11/25 14:08:30;;;;;;;2.58;0.98;;;12.20;99.90;;;;;;20590138;28;20584;-42
2022/11/25 14:18:40;;;;;;;5.97;2.35;;;12.40;99.90;;;;;;20604933;28;20073;-41
2022/11/25 14:28:57;;;;;;;3.42;1.17;;;12.20;99.90;;;;;;20595417;28;20622;-42
2022/11/25 14:39:04;;;;;;;3.60;1.40;;;11.60;99.90;;;;;;20608838;28;20121;-42
2022/11/25 14:49:05;;;;;;;3.83;0.98;;;11.40;99.90;;;;;;20628992;28;20057;-43
2022/11/25 14:59:09;;;;;;;3.10;1.15;;;11.50;99.90;;;;;;20612011;28;20053;-42
2022/11/25 15:09:21;;;;;;;15.10;3.33;;;11.40;99.90;;;;;;20623641;28;20159;-42
2022/11/25 15:19:26;;;;;;;7.60;1.42;;;11.10;99.90;;;;;;20627654;28;20124;-42
2022/11/25 15:29:30;;;;;;;4.80;1.67;;;11.00;99.90;;;;;;20622476;28;20493;-43
2022/11/25 15:39:31;;;;;;;3.15;1.15;;;10.70;99.90;;;;;;20618612;28;20069;-42
2022/11/25 15:49:33;;;;;;;1.63;0.80;;;10.40;99.90;;;;;;20623640;28;20177;-43
2022/11/25 15:59:44;;;;;;;3.00;1.02;;;10.20;99.90;;;;;;20623407;28;20120;-43
2022/11/25 16:09:50;;;;;;;13.75;6.80;;;9.90;99.90;;;;;;20556774;28;20866;-42
2022/11/25 16:19:51;;;;;;;19.00;9.27;;;9.70;99.90;;;;;;20618313;28;20128;-42
2022/11/25 16:29:56;;;;;;;15.52;7.07;;;9.40;99.90;;;;;;20597940;28;20142;-42
2022/11/25 16:39:57;;;;;;;10.82;5.05;;;9.20;99.90;;;;;;20562268;28;20181;-43
2022/11/25 16:49:58;;;;;;;4.40;2.13;;;9.20;99.90;;;;;;20536317;28;20038;-43
2022/11/25 17:00:07;;;;;;;3.17;1.63;;;9.00;99.90;;;;;;20531686;28;20137;-42
2022/11/25 17:10:09;;;;;;;3.03;1.42;;;8.90;99.90;;;;;;20550918;28;20046;-42
2022/11/25 17:20:15;;;;;;;7.75;3.85;;;8.80;99.90;;;;;;20544007;28;20076;-42
2022/11/25 17:30:24;;;;;;;24.17;5.38;;;8.70;99.90;;;;;;20508554;28;20405;-42
2022/11/25 17:40:25;;;;;;;6.30;3.17;;;8.60;99.90;;;;;;20591989;28;20084;-43
2022/11/25 17:50:26;;;;;;;12.13;6.22;;;8.50;99.90;;;;;;20597380;28;20109;-42
2022/11/25 18:00:28;;;;;;;19.65;11.07;;;8.40;99.90;;;;;;20603051;28;20089;-43
2022/11/25 18:10:29;;;;;;;7.22;4.00;;;8.40;99.90;;;;;;20615233;28;20613;-42
2022/11/25 18:20:31;;;;;;;5.20;2.13;;;8.40;99.90;;;;;;20615635;28;20136;-42
2022/11/25 18:30:36;;;;;;;9.30;2.05;;;8.30;99.90;;;;;;20636755;28;20641;-43
2022/11/25 18:40:40;;;;;;;2.90;1.70;;;8.10;99.90;;;;;;20639960;28;21929;-43
2022/11/25 18:50:42;;;;;;;3.70;1.73;;;8.10;99.90;;;;;;20632475;28;20955;-42
2022/11/25 19:00:47;;;;;;;5.05;1.58;;;8.10;99.90;;;;;;20602739;28;20088;-42
2022/11/25 19:10:49;;;;;;;4.47;2.05;;;8.00;99.90;;;;;;20619250;28;20137;-43
2022/11/25 19:20:50;;;;;;;7.75;3.10;;;7.90;99.90;;;;;;20619369;28;20734;-43
2022/11/25 19:30:57;;;;;;;10.02;2.92;;;7.90;99.90;;;;;;20603683;28;20124;-42
2022/11/25 19:40:58;;;;;;;;;;;7.90;99.90;;;;;;20630064;28;20527;-42
2022/11/25 19:51:01;;;;;;;3.95;1.75;;;7.70;99.90;;;;;;20604285;28;20310;-42
2022/11/25 20:01:04;;;;;;;7.10;2.45;;;7.50;99.90;;;;;;20629240;28;20078;-43
2022/11/25 20:11:05;;;;;;;6.75;2.78;;;7.50;99.90;;;;;;20629931;28;20145;-42
2022/11/25 20:21:06;;;;;;;6.38;2.97;;;7.30;99.90;;;;;;20599659;28;20130;-43
2022/11/25 20:31:16;;;;;;;5.07;2.60;;;7.30;99.90;;;;;;20561448;28;20047;-43
2022/11/25 20:41:18;;;;;;;4.03;1.85;;;7.30;99.90;;;;;;20551674;28;20081;-44
2022/11/25 20:51:21;;;;;;;5.88;2.97;;;7.20;99.90;;;;;;20601331;28;20081;-43
2022/11/25 21:01:22;;;;;;;4.30;1.65;;;7.10;99.90;;;;;;20629941;28;20124;-43
2022/11/25 21:11:24;;;;;;;7.20;1.95;;;7.10;99.90;;;;;;20622352;28;20098;-42
2022/11/25 21:21:30;;;;;;;3.83;1.88;;;7.10;99.90;;;;;;20627677;28;20046;-43
2022/11/25 21:31:31;;;;;;;11.25;2.90;;;7.00;99.90;;;;;;20621637;28;20142;-43
2022/11/25 21:41:34;;;;;;;9.32;3.60;;;7.00;99.90;;;;;;20635371;28;20054;-43
2022/11/25 21:51:35;;;;;;;4.03;2.10;;;7.00;99.90;;;;;;20632313;28;20430;-43
2022/11/25 22:01:36;;;;;;;2.83;1.10;;;7.00;99.90;;;;;;20658337;28;20733;-43
2022/11/25 22:11:40;;;;;;;3.45;1.95;;;6.90;99.90;;;;;;20664092;28;20665;-42
2022/11/25 22:21:41;;;;;;;6.38;3.28;;;6.80;99.90;;;;;;20649797;28;20260;-43
2022/11/25 22:31:42;;;;;;;14.65;3.08;;;6.80;99.90;;;;;;20636348;28;20049;-43
2022/11/25 22:41:47;;;;;;;4.15;1.50;;;6.70;99.90;;;;;;20645856;28;20100;-43
2022/11/25 22:51:48;;;;;;;5.15;2.45;;;6.70;99.90;;;;;;20632027;28;20161;-43
2022/11/25 23:01:49;;;;;;;9.27;3.22;;;6.60;99.90;;;;;;20633391;28;20069;-43
2022/11/25 23:11:50;;;;;;;7.20;3.15;;;6.50;99.90;;;;;;20641350;28;20062;-43
2022/11/25 23:21:53;;;;;;;4.47;2.08;;;6.50;99.90;;;;;;20638156;28;20049;-43
2022/11/25 23:32:01;;;;;;;2.80;1.42;;;6.40;99.90;;;;;;20643451;28;20054;-43
2022/11/25 23:42:02;;;;;;;6.95;2.15;;;6.40;99.90;;;;;;20562474;28;20124;-42
2022/11/25 23:52:06;;;;;;;7.95;2.05;;;6.40;99.90;;;;;;20567223;28;20522;-43
